sensor_id;sensor_type;location;lat;lon;timestamp;pressure;altitude;pressure_sealevel;temperature;humidity
25350;BME280;13302;48.796;11.978;2023-04-22T00:01:33;96360.38;;;10.35;36.14
25350;BME280;13302;48.796;11.978;2023-04-22T00:04:20;96360.03;;;10.37;36.18
25350;BME280;13302;48.796;11.978;2023-04-22T00:07:08;96354.84;;;10.35;36.14
25350;BME280;13302;48.796;11.978;2023-04-22T00:09:55;96364.31;;;10.34;36.26
25350;BME280;13302;48.796;11.978;2023-04-22T00:12:42;96358.78;;;10.34;36.22
25350;BME280;13302;48.796;11.978;2023-04-22T00:15:29;96356.00;;;10.34;36.24
25350;BME280;13302;48.796;11.978;2023-04-22T00:18:16;96350.88;;;10.33;36.19
25350;BME280;13302;48.796;11.978;2023-04-22T00:21:03;96344.53;;;10.32;36.32
25350;BME280;13302;48.796;11.978;2023-04-22T00:23:51;96352.44;;;10.34;36.21
25350;BME280;13302;48.796;11.978;2023-04-22T00:26:38;96353.25;;;10.34;35.99
25350;BME280;13302;48.796;11.978;2023-04-22T00:29:25;96353.25;;;10.34;35.86
25350;BME280;13302;48.796;11.978;2023-04-22T00:32:12;96356.38;;;10.33;36.14
25350;BME280;13302;48.796;11.978;2023-04-22T00:34:59;96350.88;;;10.33;36.26
25350;BME280;13302;48.796;11.978;2023-04-22T00:37:46;96355.13;;;10.30;36.10
25350;BME280;13302;48.796;11.978;2023-04-22T00:40:33;96356.31;;;10.29;36.21
25350;BME280;13302;48.796;11.978;2023-04-22T00:43:20;96351.88;;;10.25;36.39
25350;BME280;13302;48.796;11.978;2023-04-22T00:46:08;96351.41;;;10.23;36.50
25350;BME280;13302;48.796;11.978;2023-04-22T00:48:56;96352.94;;;10.20;36.47
25350;BME280;13302;48.796;11.978;2023-04-22T00:51:43;96343.88;;;10.20;36.48
25350;BME280;13302;48.796;11.978;2023-04-22T00:54:30;96350.19;;;10.20;36.28
25350;BME280;13302;48.796;11.978;2023-04-22T00:57:19;96356.44;;;10.17;36.21
25350;BME280;13302;48.796;11.978;2023-04-22T01:00:06;96354.84;;;10.16;36.43
25350;BME280;13302;48.796;11.978;2023-04-22T01:02:56;96351.63;;;10.14;36.05
25350;BME280;13302;48.796;11.978;2023-04-22T01:05:44;96350.38;;;10.11;35.72
25350;BME280;13302;48.796;11.978;2023-04-22T01:08:31;96353.06;;;10.08;36.18
25350;BME280;13302;48.796;11.978;2023-04-22T01:11:18;96345.50;;;10.05;36.05
25350;BME280;13302;48.796;11.978;2023-04-22T01:14:05;96345.41;;;10.01;36.02
25350;BME280;13302;48.796;11.978;2023-04-22T01:16:52;96344.97;;;9.99;36.28
25350;BME280;13302;48.796;11.978;2023-04-22T01:19:40;96348.09;;;9.98;36.23
25350;BME280;13302;48.796;11.978;2023-04-22T01:22:31;96349.25;;;9.97;36.33
25350;BME280;13302;48.796;11.978;2023-04-22T01:25:21;96353.19;;;9.96;36.44
25350;BME280;13302;48.796;11.978;2023-04-22T01:28:08;96357.09;;;9.95;36.43
25350;BME280;13302;48.796;11.978;2023-04-22T01:30:56;96359.78;;;9.91;36.49
25350;BME280;13302;48.796;11.978;2023-04-22T01:33:43;96358.97;;;9.91;36.34
25350;BME280;13302;48.796;11.978;2023-04-22T01:36:30;96357.75;;;9.88;36.55
25350;BME280;13302;48.796;11.978;2023-04-22T01:39:18;96358.44;;;9.85;36.63
25350;BME280;13302;48.796;11.978;2023-04-22T01:42:05;96352.94;;;9.85;36.43
25350;BME280;13302;48.796;11.978;2023-04-22T01:44:52;96350.88;;;9.82;36.71
25350;BME280;13302;48.796;11.978;2023-04-22T01:47:39;96358.38;;;9.82;36.63
25350;BME280;13302;48.796;11.978;2023-04-22T01:50:26;96353.56;;;9.79;36.71
25350;BME280;13302;48.796;11.978;2023-04-22T01:53:14;96354.72;;;9.78;36.29
25350;BME280;13302;48.796;11.978;2023-04-22T01:56:01;96356.25;;;9.75;36.45
25350;BME280;13302;48.796;11.978;2023-04-22T01:58:48;96353.03;;;9.73;36.72
25350;BME280;13302;48.796;11.978;2023-04-22T02:01:35;96355.00;;;9.73;36.61
25350;BME280;13302;48.796;11.978;2023-04-22T02:04:25;96349.84;;;9.71;36.58
25350;BME280;13302;48.796;11.978;2023-04-22T02:07:12;96344.66;;;9.70;36.56
25350;BME280;13302;48.796;11.978;2023-04-22T02:09:59;96354.91;;;9.69;36.85
25350;BME280;13302;48.796;11.978;2023-04-22T02:12:47;96348.59;;;9.68;36.83
25350;BME280;13302;48.796;11.978;2023-04-22T02:15:34;96345.00;;;9.68;36.65
25350;BME280;13302;48.796;11.978;2023-04-22T02:18:21;96348.97;;;9.67;36.85
25350;BME280;13302;48.796;11.978;2023-04-22T02:21:09;96342.19;;;9.64;36.55
25350;BME280;13302;48.796;11.978;2023-04-22T02:23:56;96350.03;;;9.62;36.61
25350;BME280;13302;48.796;11.978;2023-04-22T02:26:42;96349.56;;;9.60;36.85
25350;BME280;13302;48.796;11.978;2023-04-22T02:29:30;96349.13;;;9.58;36.69
25350;BME280;13302;48.796;11.978;2023-04-22T02:32:18;96352.69;;;9.59;36.92
25350;BME280;13302;48.796;11.978;2023-04-22T02:35:05;96348.00;;;9.59;36.66
25350;BME280;13302;48.796;11.978;2023-04-22T02:37:52;96349.13;;;9.58;36.94
25350;BME280;13302;48.796;11.978;2023-04-22T02:40:42;96352.69;;;9.59;36.90
25350;BME280;13302;48.796;11.978;2023-04-22T02:43:29;96353.50;;;9.59;36.74
25350;BME280;13302;48.796;11.978;2023-04-22T02:46:16;96355.09;;;9.60;36.99
25350;BME280;13302;48.796;11.978;2023-04-22T02:49:03;96357.50;;;9.62;36.65
25350;BME280;13302;48.796;11.978;2023-04-22T02:51:50;96354.41;;;9.63;36.86
25350;BME280;13302;48.796;11.978;2023-04-22T02:54:37;96349.31;;;9.65;36.74
25350;BME280;13302;48.796;11.978;2023-04-22T02:57:24;96347.34;;;9.66;36.79
25350;BME280;13302;48.796;11.978;2023-04-22T03:00:11;96350.09;;;9.66;36.71
25350;BME280;13302;48.796;11.978;2023-04-22T03:02:59;96343.34;;;9.63;36.50
25350;BME280;13302;48.796;11.978;2023-04-22T03:05:52;96345.31;;;9.63;36.38
25350;BME280;13302;48.796;11.978;2023-04-22T03:08:39;96348.41;;;9.61;36.26
25350;BME280;13302;48.796;11.978;2023-04-22T03:11:26;96343.25;;;9.60;36.55
25350;BME280;13302;48.796;11.978;2023-04-22T03:14:13;96346.38;;;9.58;36.34
25350;BME280;13302;48.796;11.978;2023-04-22T03:17:00;96340.06;;;9.58;36.61
25350;BME280;13302;48.796;11.978;2023-04-22T03:19:48;96353.38;;;9.56;36.38
25350;BME280;13302;48.796;11.978;2023-04-22T03:22:35;96341.91;;;9.54;36.31
25350;BME280;13302;48.796;11.978;2023-04-22T03:25:23;96340.28;;;9.53;36.36
25350;BME280;13302;48.796;11.978;2023-04-22T03:28:13;96348.94;;;9.51;36.30
25350;BME280;13302;48.796;11.978;2023-04-22T03:31:00;96345.38;;;9.51;36.32
25350;BME280;13302;48.796;11.978;2023-04-22T03:33:49;96342.97;;;9.49;36.29
25350;BME280;13302;48.796;11.978;2023-04-22T03:36:45;96343.31;;;9.48;36.29
25350;BME280;13302;48.796;11.978;2023-04-22T03:39:32;96346.78;;;9.45;36.30
25350;BME280;13302;48.796;11.978;2023-04-22T03:42:19;96336.09;;;9.43;36.07
25350;BME280;13302;48.796;11.978;2023-04-22T03:45:06;96336.00;;;9.40;36.24
25350;BME280;13302;48.796;11.978;2023-04-22T03:47:57;96337.06;;;9.35;36.07
25350;BME280;13302;48.796;11.978;2023-04-22T03:50:54;96333.44;;;9.31;36.19
25350;BME280;13302;48.796;11.978;2023-04-22T03:53:42;96344.84;;;9.30;36.25
25350;BME280;13302;48.796;11.978;2023-04-22T03:56:35;96353.03;;;9.26;36.48
25350;BME280;13302;48.796;11.978;2023-04-22T03:59:22;96354.97;;;9.26;36.56
25350;BME280;13302;48.796;11.978;2023-04-22T04:02:09;96355.31;;;9.24;36.34
25350;BME280;13302;48.796;11.978;2023-04-22T04:04:57;96361.22;;;9.23;36.48
25350;BME280;13302;48.796;11.978;2023-04-22T04:07:44;96361.56;;;9.21;36.30
25350;BME280;13302;48.796;11.978;2023-04-22T04:10:32;96359.50;;;9.18;36.40
25350;BME280;13302;48.796;11.978;2023-04-22T04:13:20;96357.44;;;9.15;36.58
25350;BME280;13302;48.796;11.978;2023-04-22T04:16:25;96356.53;;;9.11;36.50
25350;BME280;13302;48.796;11.978;2023-04-22T04:19:19;96354.16;;;9.09;36.42
25350;BME280;13302;48.796;11.978;2023-04-22T04:22:07;96354.97;;;9.10;36.72
25350;BME280;13302;48.796;11.978;2023-04-22T04:25:00;96359.69;;;9.09;36.60
25350;BME280;13302;48.796;11.978;2023-04-22T04:27:53;96350.59;;;9.09;36.32
25350;BME280;13302;48.796;11.978;2023-04-22T04:30:41;96356.81;;;9.06;36.39
25350;BME280;13302;48.796;11.978;2023-04-22T04:33:29;96353.59;;;9.04;36.45
25350;BME280;13302;48.796;11.978;2023-04-22T04:36:18;96357.06;;;9.01;36.33
25350;BME280;13302;48.796;11.978;2023-04-22T04:39:06;96353.06;;;8.98;36.30
25350;BME280;13302;48.796;11.978;2023-04-22T04:41:55;96360.09;;;8.96;36.26
25350;BME280;13302;48.796;11.978;2023-04-22T04:44:46;96358.84;;;8.93;36.64
25350;BME280;13302;48.796;11.978;2023-04-22T04:47:34;96354.91;;;8.94;36.24
25350;BME280;13302;48.796;11.978;2023-04-22T04:50:32;96358.84;;;8.93;36.24
25350;BME280;13302;48.796;11.978;2023-04-22T04:53:21;96358.84;;;8.93;36.26
25350;BME280;13302;48.796;11.978;2023-04-22T04:56:08;96356.44;;;8.92;36.21
25350;BME280;13302;48.796;11.978;2023-04-22T04:58:56;96362.75;;;8.92;36.67
25350;BME280;13302;48.796;11.978;2023-04-22T05:01:46;96366.31;;;8.93;36.72
25350;BME280;13302;48.796;11.978;2023-04-22T05:04:33;96370.69;;;8.94;36.81
25350;BME280;13302;48.796;11.978;2023-04-22T05:07:20;96365.59;;;8.96;36.82
25350;BME280;13302;48.796;11.978;2023-04-22T05:10:09;96369.59;;;8.98;37.09
25350;BME280;13302;48.796;11.978;2023-04-22T05:12:57;96368.09;;;9.01;37.09
25350;BME280;13302;48.796;11.978;2023-04-22T05:15:45;96359.13;;;9.04;37.09
25350;BME280;13302;48.796;11.978;2023-04-22T05:18:32;96361.53;;;9.05;37.31
25350;BME280;13302;48.796;11.978;2023-04-22T05:21:24;96358.41;;;9.07;37.50
25350;BME280;13302;48.796;11.978;2023-04-22T05:24:11;96358.41;;;9.07;37.49
25350;BME280;13302;48.796;11.978;2023-04-22T05:26:58;96363.25;;;9.10;37.41
25350;BME280;13302;48.796;11.978;2023-04-22T05:29:46;96359.31;;;9.11;37.64
25350;BME280;13302;48.796;11.978;2023-04-22T05:32:35;96355.06;;;9.13;37.70
25350;BME280;13302;48.796;11.978;2023-04-22T05:35:23;96354.34;;;9.16;38.01
25350;BME280;13302;48.796;11.978;2023-04-22T05:38:10;96363.50;;;9.20;38.17
25350;BME280;13302;48.796;11.978;2023-04-22T05:40:58;96358.06;;;9.24;38.26
25350;BME280;13302;48.796;11.978;2023-04-22T05:43:46;96362.88;;;9.27;38.40
25350;BME280;13302;48.796;11.978;2023-04-22T05:46:36;96357.91;;;9.33;38.71
25350;BME280;13302;48.796;11.978;2023-04-22T05:49:23;96362.38;;;9.37;38.48
25350;BME280;13302;48.796;11.978;2023-04-22T05:52:35;96368.06;;;9.44;38.99
25350;BME280;13302;48.796;11.978;2023-04-22T05:55:33;96376.53;;;9.51;38.87
25350;BME280;13302;48.796;11.978;2023-04-22T05:58:22;96370.41;;;9.58;38.81
25350;BME280;13302;48.796;11.978;2023-04-22T06:01:12;96373.00;;;9.66;38.89
25350;BME280;13302;48.796;11.978;2023-04-22T06:04:17;96372.34;;;9.73;38.85
25350;BME280;13302;48.796;11.978;2023-04-22T06:07:05;96374.13;;;9.81;38.71
25350;BME280;13302;48.796;11.978;2023-04-22T06:09:52;96383.03;;;9.90;39.09
25350;BME280;13302;48.796;11.978;2023-04-22T06:12:50;96387.22;;;10.00;39.07
25350;BME280;13302;48.796;11.978;2023-04-22T06:15:37;96392.53;;;10.08;38.82
25350;BME280;13302;48.796;11.978;2023-04-22T06:18:24;96391.97;;;10.19;39.03
25350;BME280;13302;48.796;11.978;2023-04-22T06:21:14;96401.69;;;10.28;39.12
25350;BME280;13302;48.796;11.978;2023-04-22T06:24:01;96407.88;;;10.41;38.96
25350;BME280;13302;48.796;11.978;2023-04-22T06:26:50;96404.53;;;10.51;38.99
25350;BME280;13302;48.796;11.978;2023-04-22T06:29:38;96403.22;;;10.61;38.83
25350;BME280;13302;48.796;11.978;2023-04-22T06:32:25;96405.84;;;10.73;38.67
25350;BME280;13302;48.796;11.978;2023-04-22T06:35:12;96401.69;;;10.82;38.40
25350;BME280;13302;48.796;11.978;2023-04-22T06:37:59;96404.66;;;10.93;38.14
25350;BME280;13302;48.796;11.978;2023-04-22T06:40:51;96413.16;;;11.03;38.30
25350;BME280;13302;48.796;11.978;2023-04-22T06:43:44;96409.81;;;11.14;38.24
25350;BME280;13302;48.796;11.978;2023-04-22T06:46:37;96407.63;;;11.23;38.12
25350;BME280;13302;48.796;11.978;2023-04-22T06:49:43;96411.75;;;11.32;37.76
25350;BME280;13302;48.796;11.978;2023-04-22T06:52:39;96406.78;;;11.41;37.76
25350;BME280;13302;48.796;11.978;2023-04-22T06:55:26;96409.81;;;11.52;37.72
25350;BME280;13302;48.796;11.978;2023-04-22T06:58:13;96409.16;;;11.62;37.83
25350;BME280;13302;48.796;11.978;2023-04-22T07:01:01;96408.13;;;11.70;37.84
25350;BME280;13302;48.796;11.978;2023-04-22T07:03:48;96412.66;;;11.82;37.78
25350;BME280;13302;48.796;11.978;2023-04-22T07:06:36;96409.25;;;11.88;37.63
25350;BME280;13302;48.796;11.978;2023-04-22T07:09:23;96410.25;;;12.03;37.46
25350;BME280;13302;48.796;11.978;2023-04-22T07:12:10;96413.56;;;12.12;37.44
25350;BME280;13302;48.796;11.978;2023-04-22T07:14:57;96410.97;;;12.23;37.56
25350;BME280;13302;48.796;11.978;2023-04-22T07:17:44;96413.09;;;12.33;37.41
25350;BME280;13302;48.796;11.978;2023-04-22T07:20:32;96412.03;;;12.41;37.22
25350;BME280;13302;48.796;11.978;2023-04-22T07:23:19;96415.38;;;12.50;37.53
25350;BME280;13302;48.796;11.978;2023-04-22T07:26:06;96401.66;;;12.61;37.42
25350;BME280;13302;48.796;11.978;2023-04-22T07:28:54;96408.53;;;12.70;37.52
25350;BME280;13302;48.796;11.978;2023-04-22T07:31:41;96400.72;;;12.79;37.05
25350;BME280;13302;48.796;11.978;2023-04-22T07:34:28;96400.44;;;12.88;36.99
25350;BME280;13302;48.796;11.978;2023-04-22T07:37:15;96394.16;;;12.95;36.83
25350;BME280;13302;48.796;11.978;2023-04-22T07:40:02;96390.31;;;13.03;36.97
25350;BME280;13302;48.796;11.978;2023-04-22T07:42:49;96386.03;;;13.09;37.03
25350;BME280;13302;48.796;11.978;2023-04-22T07:45:36;96394.78;;;13.14;37.15
25350;BME280;13302;48.796;11.978;2023-04-22T07:48:23;96402.78;;;13.19;37.22
25350;BME280;13302;48.796;11.978;2023-04-22T07:53:57;96393.84;;;13.33;37.06
25350;BME280;13302;48.796;11.978;2023-04-22T07:56:44;96399.47;;;13.40;36.70
25350;BME280;13302;48.796;11.978;2023-04-22T07:59:31;96390.81;;;13.45;36.80
25350;BME280;13302;48.796;11.978;2023-04-22T08:02:18;96394.41;;;13.49;36.59
25350;BME280;13302;48.796;11.978;2023-04-22T08:05:06;96391.69;;;13.53;36.84
25350;BME280;13302;48.796;11.978;2023-04-22T08:07:53;96386.16;;;13.56;36.55
25350;BME280;13302;48.796;11.978;2023-04-22T08:10:40;96386.94;;;13.57;36.70
25350;BME280;13302;48.796;11.978;2023-04-22T08:13:27;96384.56;;;13.59;36.94
25350;BME280;13302;48.796;11.978;2023-04-22T08:16:14;96379.06;;;13.62;37.00
25350;BME280;13302;48.796;11.978;2023-04-22T08:19:01;96381.88;;;13.66;36.69
25350;BME280;13302;48.796;11.978;2023-04-22T08:21:48;96385.06;;;13.68;36.56
25350;BME280;13302;48.796;11.978;2023-04-22T08:24:35;96383.53;;;13.70;36.81
25350;BME280;13302;48.796;11.978;2023-04-22T08:27:22;96386.69;;;13.72;36.57
25350;BME280;13302;48.796;11.978;2023-04-22T08:30:09;96383.53;;;13.74;36.70
25350;BME280;13302;48.796;11.978;2023-04-22T08:32:56;96384.75;;;13.76;36.85
25350;BME280;13302;48.796;11.978;2023-04-22T08:35:43;96389.53;;;13.79;36.82
25350;BME280;13302;48.796;11.978;2023-04-22T08:38:30;96387.19;;;13.82;36.75
25350;BME280;13302;48.796;11.978;2023-04-22T08:41:17;96395.53;;;13.85;36.86
25350;BME280;13302;48.796;11.978;2023-04-22T08:44:05;96395.56;;;13.89;36.94
25350;BME280;13302;48.796;11.978;2023-04-22T08:46:53;96394.41;;;13.93;36.89
25350;BME280;13302;48.796;11.978;2023-04-22T08:49:42;96392.84;;;13.96;37.08
25350;BME280;13302;48.796;11.978;2023-04-22T08:52:30;96393.28;;;14.01;37.23
25350;BME280;13302;48.796;11.978;2023-04-22T08:55:17;96391.72;;;14.04;37.07
25350;BME280;13302;48.796;11.978;2023-04-22T08:58:04;96390.56;;;14.08;36.95
25350;BME280;13302;48.796;11.978;2023-04-22T09:00:53;96391.84;;;14.14;37.20
25350;BME280;13302;48.796;11.978;2023-04-22T09:03:40;96395.81;;;14.17;37.22
25350;BME280;13302;48.796;11.978;2023-04-22T09:06:30;96391.91;;;14.21;36.91
25350;BME280;13302;48.796;11.978;2023-04-22T09:09:18;96390.38;;;14.28;37.12
25350;BME280;13302;48.796;11.978;2023-04-22T09:12:05;96378.47;;;14.31;36.82
25350;BME280;13302;48.796;11.978;2023-04-22T09:14:52;96383.66;;;14.36;37.09
25350;BME280;13302;48.796;11.978;2023-04-22T09:17:40;96383.69;;;14.39;36.97
25350;BME280;13302;48.796;11.978;2023-04-22T09:20:29;96382.53;;;14.44;37.10
25350;BME280;13302;48.796;11.978;2023-04-22T09:23:16;96384.13;;;14.48;37.13
25350;BME280;13302;48.796;11.978;2023-04-22T09:26:03;96378.19;;;14.53;36.65
25350;BME280;13302;48.796;11.978;2023-04-22T09:28:51;96382.59;;;14.58;36.65
25350;BME280;13302;48.796;11.978;2023-04-22T09:31:39;96381.84;;;14.64;36.50
25350;BME280;13302;48.796;11.978;2023-04-22T09:34:26;96382.66;;;14.68;36.60
25350;BME280;13302;48.796;11.978;2023-04-22T09:37:13;96385.06;;;14.73;36.42
25350;BME280;13302;48.796;11.978;2023-04-22T09:40:00;96379.91;;;14.79;36.59
25350;BME280;13302;48.796;11.978;2023-04-22T09:42:49;96380.34;;;14.85;36.53
25350;BME280;13302;48.796;11.978;2023-04-22T09:45:38;96373.22;;;14.91;36.35
25350;BME280;13302;48.796;11.978;2023-04-22T09:48:26;96377.25;;;14.97;36.08
25350;BME280;13302;48.796;11.978;2023-04-22T09:51:14;96382.03;;;15.03;36.45
25350;BME280;13302;48.796;11.978;2023-04-22T09:54:06;96374.91;;;15.09;36.52
25350;BME280;13302;48.796;11.978;2023-04-22T09:56:57;96376.91;;;15.16;36.12
25350;BME280;13302;48.796;11.978;2023-04-22T09:59:44;96368.56;;;15.23;36.35
25350;BME280;13302;48.796;11.978;2023-04-22T10:02:31;96367.81;;;15.30;36.10
25350;BME280;13302;48.796;11.978;2023-04-22T10:05:18;96366.22;;;15.36;36.04
25350;BME280;13302;48.796;11.978;2023-04-22T10:08:08;96357.50;;;15.41;35.68
25350;BME280;13302;48.796;11.978;2023-04-22T10:10:56;96357.13;;;15.46;36.00
25350;BME280;13302;48.796;11.978;2023-04-22T10:13:43;96342.81;;;15.51;35.81
25350;BME280;13302;48.796;11.978;2023-04-22T10:16:32;96338.03;;;15.55;35.51
25350;BME280;13302;48.796;11.978;2023-04-22T10:19:22;96339.22;;;15.61;35.60
25350;BME280;13302;48.796;11.978;2023-04-22T10:22:10;96332.44;;;15.66;35.61
25350;BME280;13302;48.796;11.978;2023-04-22T10:24:58;96334.47;;;15.72;35.45
25350;BME280;13302;48.796;11.978;2023-04-22T10:28:00;96346.81;;;15.78;35.35
25350;BME280;13302;48.796;11.978;2023-04-22T10:30:48;96336.84;;;15.84;35.51
25350;BME280;13302;48.796;11.978;2023-04-22T10:33:35;96334.09;;;15.91;35.08
25350;BME280;13302;48.796;11.978;2023-04-22T10:36:22;96336.88;;;15.98;34.89
25350;BME280;13302;48.796;11.978;2023-04-22T10:39:14;96328.50;;;16.02;35.03
25350;BME280;13302;48.796;11.978;2023-04-22T10:44:51;96320.13;;;16.16;34.94
25350;BME280;13302;48.796;11.978;2023-04-22T10:47:39;96324.50;;;16.24;34.82
25350;BME280;13302;48.796;11.978;2023-04-22T10:50:30;96323.28;;;16.29;34.65
25350;BME280;13302;48.796;11.978;2023-04-22T10:53:34;96318.88;;;16.35;34.58
25350;BME280;13302;48.796;11.978;2023-04-22T10:56:22;96319.28;;;16.40;34.03
25350;BME280;13302;48.796;11.978;2023-04-22T10:59:15;96320.09;;;16.44;34.26
25350;BME280;13302;48.796;11.978;2023-04-22T11:02:07;96313.31;;;16.49;33.91
25350;BME280;13302;48.796;11.978;2023-04-22T11:05:17;96316.09;;;16.52;34.02
25350;BME280;13302;48.796;11.978;2023-04-22T11:08:12;96318.44;;;16.54;33.76
25350;BME280;13302;48.796;11.978;2023-04-22T11:11:07;96317.25;;;16.59;33.52
25350;BME280;13302;48.796;11.978;2023-04-22T11:13:54;96318.81;;;16.63;33.24
25350;BME280;13302;48.796;11.978;2023-04-22T11:16:45;96309.66;;;16.66;33.21
25350;BME280;13302;48.796;11.978;2023-04-22T11:19:33;96313.25;;;16.70;32.72
25350;BME280;13302;48.796;11.978;2023-04-22T11:22:22;96321.59;;;16.74;32.79
25350;BME280;13302;48.796;11.978;2023-04-22T11:25:09;96310.81;;;16.76;32.79
25350;BME280;13302;48.796;11.978;2023-04-22T11:27:57;96306.44;;;16.78;32.63
25350;BME280;13302;48.796;11.978;2023-04-22T11:30:44;96298.03;;;16.82;32.85
25350;BME280;13302;48.796;11.978;2023-04-22T11:33:32;96301.59;;;16.86;33.21
25350;BME280;13302;48.796;11.978;2023-04-22T11:36:21;96295.56;;;16.91;32.76
25350;BME280;13302;48.796;11.978;2023-04-22T11:39:08;96302.72;;;16.95;33.05
25350;BME280;13302;48.796;11.978;2023-04-22T11:41:55;96294.38;;;16.99;32.40
25350;BME280;13302;48.796;11.978;2023-04-22T11:44:43;96293.91;;;17.04;32.41
25350;BME280;13302;48.796;11.978;2023-04-22T11:47:30;96298.72;;;17.07;32.34
25350;BME280;13302;48.796;11.978;2023-04-22T11:50:21;96297.47;;;17.12;32.59
25350;BME280;13302;48.796;11.978;2023-04-22T11:53:20;96289.88;;;17.16;32.44
25350;BME280;13302;48.796;11.978;2023-04-22T11:56:09;96286.28;;;17.22;32.54
25350;BME280;13302;48.796;11.978;2023-04-22T11:58:57;96292.22;;;17.28;32.36
25350;BME280;13302;48.796;11.978;2023-04-22T12:01:46;96290.22;;;17.32;32.19
25350;BME280;13302;48.796;11.978;2023-04-22T12:04:40;96287.38;;;17.35;32.10
25350;BME280;13302;48.796;11.978;2023-04-22T12:07:28;96284.94;;;17.41;32.06
25350;BME280;13302;48.796;11.978;2023-04-22T12:10:15;96282.91;;;17.45;32.22
25350;BME280;13302;48.796;11.978;2023-04-22T12:13:02;96288.47;;;17.49;32.20
25350;BME280;13302;48.796;11.978;2023-04-22T12:15:55;96286.44;;;17.53;32.31
25350;BME280;13302;48.796;11.978;2023-04-22T12:18:53;96287.22;;;17.57;31.99
25350;BME280;13302;48.796;11.978;2023-04-22T12:21:41;96284.41;;;17.60;31.69
25350;BME280;13302;48.796;11.978;2023-04-22T12:24:28;96289.16;;;17.63;32.18
25350;BME280;13302;48.796;11.978;2023-04-22T12:27:15;96282.75;;;17.66;31.80
25350;BME280;13302;48.796;11.978;2023-04-22T12:30:03;96282.34;;;17.68;31.73
25350;BME280;13302;48.796;11.978;2023-04-22T12:32:51;96278.34;;;17.69;31.61
25350;BME280;13302;48.796;11.978;2023-04-22T12:35:38;96279.13;;;17.69;31.67
25350;BME280;13302;48.796;11.978;2023-04-22T12:38:25;96282.72;;;17.70;31.52
25350;BME280;13302;48.796;11.978;2023-04-22T12:41:12;96275.13;;;17.70;31.16
25350;BME280;13302;48.796;11.978;2023-04-22T12:44:00;96267.53;;;17.71;31.17
25350;BME280;13302;48.796;11.978;2023-04-22T12:46:47;96272.34;;;17.70;31.59
25350;BME280;13302;48.796;11.978;2023-04-22T12:49:34;96271.13;;;17.71;31.47
25350;BME280;13302;48.796;11.978;2023-04-22T12:52:22;96271.94;;;17.72;31.47
25350;BME280;13302;48.796;11.978;2023-04-22T12:55:09;96270.72;;;17.73;31.29
25350;BME280;13302;48.796;11.978;2023-04-22T12:57:57;96273.91;;;17.75;31.04
25350;BME280;13302;48.796;11.978;2023-04-22T13:00:44;96256.72;;;17.76;31.06
25350;BME280;13302;48.796;11.978;2023-04-22T13:03:31;96256.69;;;17.80;31.26
25350;BME280;13302;48.796;11.978;2023-04-22T13:06:18;96250.25;;;17.83;30.72
25350;BME280;13302;48.796;11.978;2023-04-22T13:09:05;96249.44;;;17.86;30.93
25350;BME280;13302;48.796;11.978;2023-04-22T13:11:54;96242.66;;;17.87;30.81
25350;BME280;13302;48.796;11.978;2023-04-22T13:14:41;96246.22;;;17.91;30.92
25350;BME280;13302;48.796;11.978;2023-04-22T13:17:28;96240.22;;;17.93;30.83
25350;BME280;13302;48.796;11.978;2023-04-22T13:20:15;96230.63;;;17.94;30.49
25350;BME280;13302;48.796;11.978;2023-04-22T13:23:02;96236.59;;;17.96;30.43
25350;BME280;13302;48.796;11.978;2023-04-22T13:25:53;96232.16;;;17.98;30.69
25350;BME280;13302;48.796;11.978;2023-04-22T13:28:40;96232.53;;;18.00;30.53
25350;BME280;13302;48.796;11.978;2023-04-22T13:31:27;96218.56;;;18.00;30.59
25350;BME280;13302;48.796;11.978;2023-04-22T13:34:14;96216.56;;;18.01;30.39
25350;BME280;13302;48.796;11.978;2023-04-22T13:37:01;96219.31;;;18.04;30.25
25350;BME280;13302;48.796;11.978;2023-04-22T13:39:48;96213.69;;;18.08;30.42
25350;BME280;13302;48.796;11.978;2023-04-22T13:42:35;96208.84;;;18.12;30.04
25350;BME280;13302;48.796;11.978;2023-04-22T13:45:22;96202.41;;;18.15;30.40
25350;BME280;13302;48.796;11.978;2023-04-22T13:48:10;96206.78;;;18.16;30.19
25350;BME280;13302;48.796;11.978;2023-04-22T13:50:57;96191.16;;;18.18;30.09
25350;BME280;13302;48.796;11.978;2023-04-22T13:53:44;96186.75;;;18.21;29.67
25350;BME280;13302;48.796;11.978;2023-04-22T13:56:32;96183.53;;;18.22;30.08
25350;BME280;13302;48.796;11.978;2023-04-22T13:59:19;96185.88;;;18.27;30.04
25350;BME280;13302;48.796;11.978;2023-04-22T14:02:06;96183.88;;;18.28;30.20
25350;BME280;13302;48.796;11.978;2023-04-22T14:04:53;96175.06;;;18.29;29.87
25350;BME280;13302;48.796;11.978;2023-04-22T14:07:40;96174.22;;;18.32;30.11
25350;BME280;13302;48.796;11.978;2023-04-22T14:10:27;96172.59;;;18.35;30.30
25350;BME280;13302;48.796;11.978;2023-04-22T14:13:14;96170.53;;;18.39;30.17
25350;BME280;13302;48.796;11.978;2023-04-22T14:16:03;96173.72;;;18.41;30.00
25350;BME280;13302;48.796;11.978;2023-04-22T14:18:55;96167.28;;;18.44;29.81
25350;BME280;13302;48.796;11.978;2023-04-22T14:21:44;96177.69;;;18.44;29.58
25350;BME280;13302;48.796;11.978;2023-04-22T14:24:31;96181.28;;;18.44;29.76
25350;BME280;13302;48.796;11.978;2023-04-22T14:27:18;96170.06;;;18.44;29.33
25350;BME280;13302;48.796;11.978;2023-04-22T14:30:05;96161.69;;;18.44;29.64
25350;BME280;13302;48.796;11.978;2023-04-22T14:32:54;96166.44;;;18.47;29.57
25350;BME280;13302;48.796;11.978;2023-04-22T14:35:41;96172.00;;;18.51;29.34
25350;BME280;13302;48.796;11.978;2023-04-22T14:38:28;96157.56;;;18.52;29.12
25350;BME280;13302;48.796;11.978;2023-04-22T14:41:15;96166.78;;;18.53;29.13
25350;BME280;13302;48.796;11.978;2023-04-22T14:44:02;96157.56;;;18.52;29.15
25350;BME280;13302;48.796;11.978;2023-04-22T14:46:49;96149.59;;;18.54;29.33
25350;BME280;13302;48.796;11.978;2023-04-22T14:49:36;96161.59;;;18.55;29.01